F/V Le Natif 2 — FKVW — position and weather

sailwx.info

Track history (hours):
 
Tides and Currents Weather Stations Pressure Air Temp Water Temp Dewpoint Dewpoint Depression Visibility Wind Speed Wind Dir Waves Ship Positions

F/V Le Natif 2

Last reported at 2016-May-03 08:33 UTC. Time now 2016-May-03 08:43 UTC.
Position N 46°09' W 001°13'.

Length 16 m.

Type: Fishing. MMSI: 228131600.

Date/timePositionNaut miles runAvg speedWind from/ knotsBaromVisibWave heightAir tempDewpointWater temp
2016-May-03 08:33N 46°09' W 001°13'0 0.0
2016-May-03 07:33N 46°09' W 001°13'0 0.1
2016-May-03 06:33N 46°09' W 001°14'7 7.5
2016-May-03 05:33N 46°06' W 001°23'18 0.4
2016-May-01 04:22N 46°08' W 001°49'7 8.2
2016-May-01 03:33N 46°14' W 001°51'8 8.4
2016-May-01 02:33N 46°23' W 001°53'8 8.4
2016-May-01 01:33N 46°31' W 001°55'9 8.5
2016-May-01 00:33N 46°39' W 001°57'  
2016-Apr-28 18:31N 46°42' W 001°56'6 6.7
2016-Apr-28 17:34N 46°35' W 001°54'8 8.2
2016-Apr-28 16:34N 46°28' W 001°48'2 0.3
2016-Apr-28 10:33N 46°30' W 001°47'0 0.2
2016-Apr-28 09:33N 46°30' W 001°48'4 4.2
2016-Apr-28 08:33N 46°26' W 001°48'4 4.3
2016-Apr-28 07:33N 46°30' W 001°47'0 0.0
2016-Apr-26 19:08N 46°30' W 001°47'2 2.8
2016-Apr-26 18:33N 46°28' W 001°48'2 1.6
2016-Apr-26 17:33N 46°30' W 001°47'  
Track history (hours):
 
Tides and Currents Weather Stations Pressure Air Temp Water Temp Dewpoint Dewpoint Depression Visibility Wind Speed Wind Dir Waves Ship Positions

F/V Le Natif 2

Last reported at 2016-May-03 08:33 UTC. Time now 2016-May-03 08:43 UTC.
Position N 46°09' W 001°13'.

Length 16 m.

Type: Fishing. MMSI: 228131600.

Date/timePositionNaut miles runAvg speedWind from/ knotsBaromVisibWave heightAir tempDewpointWater temp
2016-May-03 08:33N 46°09' W 001°13'0 0.0
2016-May-03 07:33N 46°09' W 001°13'0 0.1
2016-May-03 06:33N 46°09' W 001°14'7 7.5
2016-May-03 05:33N 46°06' W 001°23'18 0.4
2016-May-01 04:22N 46°08' W 001°49'7 8.2
2016-May-01 03:33N 46°14' W 001°51'8 8.4
2016-May-01 02:33N 46°23' W 001°53'8 8.4
2016-May-01 01:33N 46°31' W 001°55'9 8.5
2016-May-01 00:33N 46°39' W 001°57'  
2016-Apr-28 18:31N 46°42' W 001°56'6 6.7
2016-Apr-28 17:34N 46°35' W 001°54'8 8.2
2016-Apr-28 16:34N 46°28' W 001°48'2 0.3
2016-Apr-28 10:33N 46°30' W 001°47'0 0.2
2016-Apr-28 09:33N 46°30' W 001°48'4 4.2
2016-Apr-28 08:33N 46°26' W 001°48'4 4.3
2016-Apr-28 07:33N 46°30' W 001°47'0 0.0
2016-Apr-26 19:08N 46°30' W 001°47'2 2.8
2016-Apr-26 18:33N 46°28' W 001°48'2 1.6
2016-Apr-26 17:33N 46°30' W 001°47'  

Dump ship's entire track history